Portada
METAR-TAF:

METAR-TAF

Aeroports :

Varsòvia-Modlin, Polònia

latitud: 52-27-04N, longitud: 020-39-06E, altitud: 104 m

Observació

L'informe es va fer fa 36 minuts, a les 14:00 UTC
Vent 8 kt del Est/Sud-Est, variant entre Est i Sud/Sud-Est
Temperatura 31°C
Humitat 33%
Pressió 1018 hPa
Visibilitat 10 km o més
sense núvols per sota de 1500 mi sense presència de cumulonimbus.

METAR: EPMO 181400Z 12008KT 080V160 CAVOK 31/13 Q1018

Hora: 16:36 (14:36 UTC)

Pronòstic

L'informe es va fer fa 3 hores i 6 minuts, a les 11:30 UTC
Pronòstic vàlid del 18 a les 12 UTC al 19 a les 12 UTC
Vent 10 kt del Est/Sud-Est
Visibilitat 10 km o més
sense núvols per sota de 1500 mi sense presència de cumulonimbus.

TAF: EPMO 181130Z 1812/1912 11010KT CAVOK

Observacions i pronòstics meteorològics de més de 4000 aeroports (METAR i TAF).

Les estacions disponibles són els punts grocs i vermells al mapa.

Posi el ratolí al punt desitjat per veure el nom de l'estació.

Feu clic per veure les observacions i els pronòstics meteorològics.

Per canviar el mapa: feu clic els botons verds amb una creu de color negre per apropar; al botó verd amb un guió per allunyar la imatge; o en les fletxes verdes per a mapes adjacents.


METAR-TAF: